METAR Data
IDs: Format: Raw Decoded Include TAF

Data at: 2058 UTC 13 Aug 2020

K4R5 132055Z AUTO 12006KT 10SM SCT060 26/19 A3001 RMK AO2 T02560186
K4R5 132035Z AUTO 10004KT 10SM SCT038 SCT046 BKN060 25/18 A3002 RMK AO2 T02520184
K4R5 132015Z AUTO 10003KT 10SM SCT031 BKN038 BKN046 24/18 A3003 RMK AO2 T02430179
K4R5 131955Z AUTO 12003KT 10SM BKN031 OVC035 24/18 A3004 RMK AO2 T02400182
K4R5 131935Z AUTO 13003KT 10SM BKN031 BKN042 OVC055 25/18 A3004 RMK AO2 T02460182
K4R5 131915Z AUTO 00000KT 10SM BKN033 BKN044 OVC060 25/18 A3005 RMK AO2 T02460181
K4R5 131855Z AUTO 00000KT 10SM OVC033 25/18 A3005 RMK AO2 T02460178
K4R5 131835Z AUTO 00000KT 10SM OVC033 25/18 A3005 RMK AO2 T02450175
K4R5 131815Z AUTO 00000KT 10SM OVC033 24/17 A3005 RMK AO2 T02410173
K4R5 131755Z AUTO 00000KT 10SM OVC033 23/17 A3005 RMK AO2 T02340170
K4R5 131735Z AUTO 00000KT 10SM OVC035 24/17 A3006 RMK AO2 T02360168
K4R5 131715Z AUTO 09003KT 10SM BKN035 24/17 A3006 RMK AO2 T02410168
K4R5 131655Z AUTO 00000KT 10SM SCT033 SCT085 24/17 A3007 RMK AO2 LTG DSNT W T02360166
K4R5 131635Z AUTO 12004KT 10SM SCT033 BKN070 BKN085 23/16 A3006 RMK AO2 T02250159
K4R5 131615Z AUTO 09003KT 10SM BKN070 BKN085 22/16 A3007 RMK AO2 T02220156
K4R5 131555Z AUTO 12004KT 10SM BKN070 OVC085 22/15 A3007 RMK AO2 T02190152
K4R5 131535Z AUTO 09004KT 10SM BKN085 22/15 A3007 RMK AO2 T02180153
K4R5 131515Z AUTO 10003KT 10SM BKN085 22/16 A3007 RMK AO2 T02220159
K4R5 131455Z AUTO 21003KT 10SM CLR 22/15 A3007 RMK AO2 T02170153
K4R5 131435Z AUTO 00000KT 10SM CLR 22/15 A3007 RMK AO2 T02150153
K4R5 131415Z AUTO 00000KT 10SM SCT090 21/16 A3008 RMK AO2 T02090158
K4R5 131355Z AUTO 12004KT 10SM BKN090 21/16 A3008 RMK AO2 T02090157
K4R5 131335Z AUTO 00000KT 10SM SCT080 OVC090 20/16 A3008 RMK AO2 T01960163
K4R5 131315Z AUTO 00000KT 10SM SCT050 OVC080 20/16 A3009 RMK AO2 T01950161
K4R5 131255Z AUTO 00000KT 10SM OVC050 19/17 A3009 RMK AO2 T01930165
K4R5 131235Z AUTO 00000KT 10SM OVC050 19/16 A3010 RMK AO2 LTG DSNT SE T01900164
K4R5 131215Z AUTO 00000KT 10SM OVC050 19/17 A3010 RMK AO2 T01870165
K4R5 131155Z AUTO 00000KT 10SM OVC050 19/17 A3010 RMK AO2 T01850166
K4R5 131135Z AUTO 13003KT 10SM OVC048 19/16 A3010 RMK AO2 LTG DSNT SE T01850161
K4R5 131115Z AUTO 14003KT 10SM BKN048 OVC050 18/17 A3010 RMK AO2 LTG DSNT SE AND S T01820165
K4R5 131055Z AUTO 12005KT 10SM OVC050 18/16 A3010 RMK AO2 T01810162
K4R5 131035Z AUTO 11005KT 10SM OVC050 18/16 A3010 RMK AO2 LTG DSNT SE AND S T01800162
K4R5 131015Z AUTO 00000KT 10SM OVC050 18/16 A3011 RMK AO2 T01800163
K4R5 130955Z AUTO 13004KT 10SM DZ OVC050 18/17 A3012 RMK AO2 P0004 T01750166
K4R5 130935Z AUTO 12004KT 5SM +RA OVC060 18/16 A3012 RMK AO2 P0003 T01770162
K4R5 130915Z AUTO 17003KT 10SM OVC060 18/16 A3012 RMK AO2 T01800155
K4R5 130855Z AUTO 14005KT 10SM OVC060 18/15 A3012 RMK AO2 T01800153
K4R5 130835Z AUTO 17005KT 10SM -DZ BKN070 BKN075 OVC085 19/16 A3012 RMK AO2 T01860159
K4R5 130815Z AUTO 20005KT 10SM DZ SCT065 OVC080 19/18 A3012 RMK AO2 T01900178
K4R5 130755Z AUTO 17003KT 10SM OVC055 19/18 A3012 RMK AO2 T01890180
K4R5 130735Z AUTO 00000KT 10SM OVC049 18/18 A3012 RMK AO2 T01840179
K4R5 130715Z AUTO 00000KT 10SM OVC044 18/18 A3012 RMK AO2 T01800175
K4R5 130655Z AUTO 00000KT 10SM BKN040 OVC047 18/18 A3012 RMK AO2 T01770175
K4R5 130635Z AUTO 00000KT 10SM SCT040 BKN046 OVC055 18/18 A3012 RMK AO2 T01770175
K4R5 130615Z AUTO 00000KT 10SM RA SCT042 BKN050 OVC085 18/18 A3011 RMK AO2 T01780175
K4R5 130555Z AUTO 12003KT 10SM DZ BKN095 OVC110 18/17 A3011 RMK AO2 T01770174
K4R5 130535Z AUTO 00000KT 10SM -RA BKN095 OVC120 18/17 A3011 RMK AO2 T01750171
K4R5 130515Z AUTO 00000KT 10SM SCT048 SCT050 BKN120 18/17 A3011 RMK AO2 T01790171
K4R5 130455Z AUTO 00000KT 10SM BKN046 BKN060 18/17 A3010 RMK AO2 T01800171
K4R5 130435Z AUTO 00000KT 10SM SCT060 SCT120 18/17 A3010 RMK AO2 T01750169
K4R5 130415Z AUTO 00000KT 10SM -RA SCT120 19/17 A3009 RMK AO2 T01850171
K4R5 130355Z AUTO 36004KT 10SM CLR 19/17 A3009 RMK AO2 T01860170
K4R5 130335Z AUTO 34003KT 10SM SCT110 19/17 A3009 RMK AO2 T01890170
K4R5 130315Z AUTO 36006KT 10SM BKN120 19/17 A3008 RMK AO2 T01920169
K4R5 130255Z AUTO 32003KT 10SM BKN110 20/18 A3008 RMK AO2 T01950177
K4R5 130235Z AUTO 00000KT 10SM -RA BKN110 20/18 A3007 RMK AO2 T01990175
K4R5 130215Z AUTO 00000KT 10SM CLR 21/17 A3008 RMK AO2 T02060171
K4R5 130155Z AUTO 27003KT 10SM CLR 20/18 A3007 RMK AO2 T02040177
K4R5 130135Z AUTO 00000KT 10SM CLR 20/18 A3007 RMK AO2 T01950184
K4R5 130115Z AUTO 23003KT 10SM CLR 20/19 A3007 RMK AO2 T01950187
K4R5 130055Z AUTO 00000KT 10SM CLR 19/19 A3006 RMK AO2 T01910186
K4R5 130035Z AUTO 00000KT 10SM SCT120 20/19 A3006 RMK AO2 T01970189
K4R5 130015Z AUTO 00000KT 10SM SCT120 20/19 A3005 RMK AO2 T02010188
K4R5 122355Z AUTO 30003KT 10SM CLR 21/19 A3005 RMK AO2 T02060187
K4R5 122335Z AUTO 32006KT 10SM CLR 21/19 A3005 RMK AO2 T02120186
K4R5 122315Z AUTO 11003KT 10SM CLR 22/19 A3004 RMK AO2 T02150186
K4R5 122255Z AUTO 00000KT 10SM CLR 22/19 A3005 RMK AO2 T02160188
K4R5 122235Z AUTO 00000KT 10SM CLR 22/19 A3005 RMK AO2 T02200191
K4R5 122215Z AUTO 00000KT 10SM CLR 22/19 A3005 RMK AO2 T02240194
K4R5 122155Z AUTO 00000KT 10SM SCT095 SCT120 23/19 A3004 RMK AO2 T02250194
K4R5 122135Z AUTO 11003KT 10SM CLR 23/19 A3004 RMK AO2 LTG DSNT SW T02270193
K4R5 122115Z AUTO 14003KT 10SM CLR 25/18 A3002 RMK AO2 T02490178
K4R5 122055Z AUTO 15003KT 10SM CLR 26/17 A3001 RMK AO2 T02570166
K4R5 122035Z AUTO 16003KT 10SM CLR 26/16 A3002 RMK AO2 T02630164
K4R5 122015Z AUTO 19005KT 10SM CLR 27/16 A3003 RMK AO2 T02650159
K4R5 121955Z AUTO 22006KT 10SM CLR 27/16 A3004 RMK AO2 T02660161
K4R5 121935Z AUTO 22006KT 10SM CLR 27/16 A3005 RMK AO2 T02740161
K4R5 121915Z AUTO 23006KT 10SM CLR 27/18 A3005 RMK AO2 T02720178
K4R5 121855Z AUTO 24004KT 10SM CLR 27/18 A3005 RMK AO2 T02730183
K4R5 121835Z AUTO 20005KT 10SM CLR 27/18 A3005 RMK AO2 T02720184
K4R5 121815Z AUTO 00000KT 10SM SCT110 26/18 A3005 RMK AO2 T02630180
K4R5 121755Z AUTO 20004KT 10SM SCT110 26/18 A3006 RMK AO2 T02600176
K4R5 121735Z AUTO 00000KT 10SM SCT110 25/18 A3006 RMK AO2 T02510176
K4R5 121715Z AUTO 21003KT 10SM CLR 26/16 A3006 RMK AO2 T02580164
K4R5 121655Z AUTO 00000KT 10SM CLR 26/16 A3005 RMK AO2 T02570164
K4R5 121635Z AUTO 22003KT 10SM CLR 25/16 A3005 RMK AO2 T02540162
K4R5 121615Z AUTO 24003KT 10SM CLR 26/16 A3004 RMK AO2 T02560160
K4R5 121555Z AUTO 18003KT 10SM CLR 25/17 A3004 RMK AO2 T02520166
K4R5 121535Z AUTO 23003KT 10SM CLR 25/17 A3004 RMK AO2 T02450168
K4R5 121515Z AUTO 23003KT 10SM CLR 24/17 A3004 RMK AO2 T02380167
K4R5 121455Z AUTO 23005KT 10SM CLR 24/17 A3004 RMK AO2 T02350171
K4R5 121435Z AUTO 22005KT 10SM CLR 23/17 A3003 RMK AO2 T02300170
K4R5 121415Z AUTO 20004KT 10SM CLR 23/17 A3003 RMK AO2 T02250172
K4R5 121355Z AUTO 00000KT 10SM CLR 22/17 A3003 RMK AO2 T02210172
K4R5 121335Z AUTO 21003KT 10SM CLR 22/18 A3003 RMK AO2 T02160175
K4R5 121315Z AUTO 00000KT 10SM CLR 21/18 A3004 RMK AO2 T02060175
K4R5 121255Z AUTO 22004KT 10SM CLR 20/18 A3005 RMK AO2 T01960176
K4R5 121235Z AUTO 23003KT 10SM SCT120 19/18 A3005 RMK AO2 T01910175
K4R5 121215Z AUTO 22003KT 10SM SCT120 18/17 A3004 RMK AO2 T01800172
K4R5 121155Z AUTO 00000KT 10SM CLR 16/16 A3004 RMK AO2 T01620160
K4R5 121135Z AUTO 00000KT 10SM CLR 16/16 A3005 RMK AO2 T01590155
K4R5 121115Z AUTO 00000KT 10SM SCT120 17/17 A3004 RMK AO2 T01710166
K4R5 121055Z AUTO 22003KT 10SM BKN120 16/16 A3004 RMK AO2 T01570156
K4R5 121035Z AUTO 00000KT 10SM SCT120 15/15 A3003 RMK AO2 T01520150
K4R5 121015Z AUTO 00000KT 10SM CLR 16/15 A3003 RMK AO2 T01570154
K4R5 120955Z AUTO 00000KT 10SM SCT120 17/16 A3003 RMK AO2 T01650161
K4R5 120935Z AUTO 00000KT 10SM SCT090 BKN120 17/16 A3002 RMK AO2 T01680164
K4R5 120915Z AUTO 00000KT 10SM SCT075 BKN085 BKN120 17/17 A3002 RMK AO2 T01700165